LFPB METAR and TAF | Updated Today

LFPB METAR

Paris-Le Bourget Airport

Observation time: 12 min. ago

LFPB 052100Z AUTO 35006KT 320V020 CAVOK 05/02 Q1042 NOSIG

Need help? Read our tutorial on how to read METARs or read the parsed version below.

Paris-Le Bourget Airport (LFPB) METAR

  • Weather conditions on Sun, 05 Feb 2023 21:00:00 +0000 (12 min. ago):
  • Present conditions: Dry
  • Clouds: Clear skies
  • Visibility: Greater than 10 km
  • Wind: 350 degrees at 6 knots
  • Temperature: 5 celsius
  • Dew point: 2 celsius
  • Pressure: 1042 millibars
  • Remarks: None


Useful to know...

LFPB TAF

Paris-Le Bourget Airport

TAF LFPB 051700Z 0518/0618 36010KT CAVOK PROB40 TEMPO 0604/0609 BKN008
Observation time: 4:12 hr. ago
Need help? Read our tutorial on how to read TAFs or read the parsed version below.

Parsed version of TAF for Paris-Le Bourget Airport (LFPB)

  • From 05 February at 18:00 UTC, to day 06 of the month at 18:00 UTC
  • Visibility: Greater than 10 km
  • Wind: 360 degrees at 10
  • Expected to arise temporarily, from 06 February at 04:00 UTC, to day 06 of the month at 09:00 UTC
    Probability of 40%
  • Clouds: Broken sky at 244 meters